Time;durP1;ratioP1;P1;durP2;ratioP2;P2;SDS_P1;SDS_P2;PMS_P1;PMS_P2;Temp;Humidity;BMP_temperature;BMP_pressure;BME280_temperature;BME280_humidity;BME280_pressure;Samples;Min_cycle;Max_cycle;Signal;HPM_P1;HPM_P2
2024/01/19 00:01:40;;;;;;;;;;;;;;;16.28;44.17;99439.50;5106503;28;1149;-42
2024/01/19 00:04:05;;;;;;;;;;;;;;;15.85;45.03;99443.47;5119052;28;1059;-44
2024/01/19 00:06:31;;;;;;;;;;;;;;;15.60;45.78;99443.03;5119046;28;1045;-48
2024/01/19 00:08:57;;;;;;;;;;;;;;;15.45;46.34;99435.47;5106899;28;1291;-44
2024/01/19 00:11:23;;;;;;;;;;;;;;;15.59;46.12;99433.38;5112842;28;1111;-45
2024/01/19 00:13:48;;;;;;;;;;;;;;;17.02;42.82;99433.53;5111398;28;1905;-45
2024/01/19 00:16:14;;;;;;;;;;;;;;;16.78;43.19;99439.41;5107034;28;1288;-46
2024/01/19 00:18:39;;;;;;;;;;;;;;;16.00;44.69;99428.81;5106729;28;1161;-46
2024/01/19 00:21:05;;;;;;;;;;;;;;;15.71;45.84;99434.09;5112750;28;1070;-45
2024/01/19 00:23:31;;;;;;;;;;;;;;;15.47;46.18;99430.88;5111226;28;1160;-45
2024/01/19 00:25:56;;;;;;;;;;;;;;;15.23;46.74;99440.00;5118974;28;1215;-42
2024/01/19 00:28:22;;;;;;;;;;;;;;;16.14;45.08;99438.16;5110018;28;998;-44
2024/01/19 00:30:47;;;;;;;;;;;;;;;17.32;42.32;99433.41;5104169;28;1110;-44
2024/01/19 00:33:13;;;;;;;;;;;;;;;16.51;43.67;99435.72;5106733;28;1169;-45
2024/01/19 00:35:38;;;;;;;;;;;;;;;15.98;44.96;99430.75;5103463;28;1898;-44
2024/01/19 00:38:04;;;;;;;;;;;;;;;15.73;45.54;99434.78;5118884;28;1096;-46
2024/01/19 00:40:29;;;;;;;;;;;;;;;15.46;46.51;99436.31;5114776;28;1077;-42
2024/01/19 00:42:55;;;;;;;;;;;;;;;15.50;46.59;99441.19;5118613;28;1144;-43
2024/01/19 00:45:20;;;;;;;;;;;;;;;16.98;42.85;99447.28;5113165;28;1110;-43
2024/01/19 00:47:46;;;;;;;;;;;;;;;16.91;42.94;99443.53;5097755;28;1133;-45
2024/01/19 00:50:12;;;;;;;;;;;;;;;16.10;44.81;99447.38;5098439;28;1058;-44
2024/01/19 00:52:38;;;;;;;;;;;;;;;15.71;45.74;99442.91;5100890;28;1006;-43
2024/01/19 00:55:03;;;;;;;;;;;;;;;15.60;45.99;99443.03;5098540;28;1898;-45
2024/01/19 00:57:29;;;;;;;;;;;;;;;15.36;46.45;99446.88;5098278;28;1053;-47
2024/01/19 00:59:57;;;;;;;;;;;;;;;16.40;44.39;99445.50;5102749;28;1106;-48
2024/01/19 01:02:27;;;;;;;;;;;;;;;17.31;42.25;99445.03;5117932;28;1316;-44
2024/01/19 01:04:53;;;;;;;;;;;;;;;16.35;44.26;99444.28;5103644;28;1047;-48
2024/01/19 01:07:18;;;;;;;;;;;;;;;15.84;45.31;99452.38;5110234;28;1144;-41
2024/01/19 01:09:44;;;;;;;;;;;;;;;15.60;45.90;99449.16;5113374;28;1078;-45
2024/01/19 01:12:09;;;;;;;;;;;;;;;15.43;46.48;99442.72;5118584;28;1045;-47
2024/01/19 01:14:35;;;;;;;;;;;;;;;15.70;46.12;99440.38;5117324;28;1984;-47
2024/01/19 01:17:00;;;;;;;;;;;;;;;17.10;42.83;99440.81;5107446;28;912;-43
2024/01/19 01:19:26;;;;;;;;;;;;;;;16.53;43.92;99444.38;5112731;28;1327;-44
2024/01/19 01:21:51;;;;;;;;;;;;;;;15.94;45.12;99441.75;5097562;28;1202;-42
2024/01/19 01:24:19;;;;;;;;;;;;;;;15.64;46.04;99439.09;5103061;28;1214;-46
2024/01/19 01:26:44;;;;;;;;;;;;;;;15.50;46.24;99443.00;5117870;28;1069;-42
2024/01/19 01:29:10;;;;;;;;;;;;;;;15.34;46.63;99449.69;5107448;28;1128;-45
2024/01/19 01:31:35;;;;;;;;;;;;;;;15.65;46.29;99454.88;5097394;28;1098;-44
2024/01/19 01:34:03;;;;;;;;;;;;;;;17.04;42.88;99452.00;5116192;28;1977;-45
2024/01/19 01:36:29;;;;;;;;;;;;;;;16.76;43.25;99449.31;5117303;28;1121;-46
2024/01/19 01:38:54;;;;;;;;;;;;;;;16.02;44.79;99450.72;5093163;28;1062;-48
2024/01/19 01:41:20;;;;;;;;;;;;;;;15.71;46.12;99450.84;5098269;28;1054;-46
2024/01/19 01:43:45;;;;;;;;;;;;;;;15.54;46.42;99447.91;5102354;28;1082;-43
2024/01/19 01:46:11;;;;;;;;;;;;;;;15.75;45.93;99446.94;5104800;28;1157;-44
2024/01/19 01:48:36;;;;;;;;;;;;;;;17.13;42.69;99456.44;5102488;28;1117;-46
2024/01/19 01:51:02;;;;;;;;;;;;;;;16.53;44.02;99453.16;5105336;28;1074;-47
2024/01/19 01:53:27;;;;;;;;;;;;;;;15.97;45.10;99447.63;5103286;28;1085;-43
2024/01/19 01:55:53;;;;;;;;;;;;;;;15.63;45.82;99454.16;5099608;28;1914;-45
2024/01/19 01:58:18;;;;;;;;;;;;;;;15.52;46.16;99446.34;5103831;28;1212;-47
2024/01/19 02:00:44;;;;;;;;;;;;;;;15.88;45.80;99444.00;5105655;28;1215;-47
2024/01/19 02:03:09;;;;;;;;;;;;;;;17.20;42.74;99450.56;5096702;28;1042;-43
2024/01/19 02:05:35;;;;;;;;;;;;;;;16.51;43.90;99447.16;5104590;28;864;-45
2024/01/19 02:08:00;;;;;;;;;;;;;;;15.95;45.26;99451.41;5096616;28;1204;-44
2024/01/19 02:10:26;;;;;;;;;;;;;;;15.64;45.78;99455.88;5108726;28;1114;-48
2024/01/19 02:12:51;;;;;;;;;;;;;;;15.51;46.49;99457.94;5097993;28;1204;-47
2024/01/19 02:15:20;;;;;;;;;;;;;;;15.33;46.87;99455.13;5097195;28;1916;-48
2024/01/19 02:17:46;;;;;;;;;;;;;;;16.81;43.71;99463.00;5106897;28;1029;-43
2024/01/19 02:20:11;;;;;;;;;;;;;;;16.99;42.86;99468.38;5098222;28;1092;-47
2024/01/19 02:22:38;;;;;;;;;;;;;;;16.15;44.58;99465.50;5102991;28;1150;-51
2024/01/19 02:25:03;;;;;;;;;;;;;;;15.71;45.93;99465.91;5098903;28;1041;-45
2024/01/19 02:27:29;;;;;;;;;;;;;;;15.48;46.61;99472.28;5111447;28;1125;-48
2024/01/19 02:29:55;;;;;;;;;;;;;;;15.36;46.48;99474.22;5109857;28;824;-46
2024/01/19 02:32:20;;;;;;;;;;;;;;;16.41;44.57;99472.91;5097489;28;1038;-47
2024/01/19 02:34:46;;;;;;;;;;;;;;;17.13;42.59;99480.34;5108729;28;2022;-46
2024/01/19 02:37:12;;;;;;;;;;;;;;;16.21;44.67;99478.22;5090330;28;1117;-42
2024/01/19 02:39:37;;;;;;;;;;;;;;;15.73;45.49;99480.69;5116313;28;1140;-46
2024/01/19 02:42:03;;;;;;;;;;;;;;;15.50;46.56;99480.94;5110737;28;1142;-44
2024/01/19 02:44:28;;;;;;;;;;;;;;;15.36;47.11;99486.63;5104005;28;1073;-44
2024/01/19 02:46:54;;;;;;;;;;;;;;;16.72;43.98;99482.44;5109569;28;1025;-45
2024/01/19 02:49:19;;;;;;;;;;;;;;;17.02;42.79;99475.22;5108301;28;1579;-44
2024/01/19 02:51:45;;;;;;;;;;;;;;;16.20;44.73;99481.03;5108109;28;1257;-47
2024/01/19 02:54:10;;;;;;;;;;;;;;;15.76;45.80;99480.44;5093863;28;1910;-44
2024/01/19 02:56:36;;;;;;;;;;;;;;;15.57;46.40;99475.09;5114036;28;1130;-46
2024/01/19 02:59:01;;;;;;;;;;;;;;;15.28;46.71;99482.84;5105015;28;1152;-48
2024/01/19 03:01:27;;;;;;;;;;;;;;;16.49;44.36;99485.44;5109297;28;1078;-45
2024/01/19 03:03:52;;;;;;;;;;;;;;;17.34;42.34;99487.25;5096323;28;1070;-46
2024/01/19 03:06:18;;;;;;;;;;;;;;;16.35;44.34;99490.22;5103057;28;1093;-47
2024/01/19 03:08:43;;;;;;;;;;;;;;;15.83;45.52;99478.03;5098755;28;1117;-45
2024/01/19 03:11:09;;;;;;;;;;;;;;;15.58;46.05;99487.38;5111304;28;1132;-45
2024/01/19 03:13:34;;;;;;;;;;;;;;;15.37;46.97;99483.00;5100438;28;1094;-43
2024/01/19 03:16:03;;;;;;;;;;;;;;;16.23;45.25;99486.88;5117574;28;1974;-48
2024/01/19 03:18:28;;;;;;;;;;;;;;;17.37;42.18;99483.47;5105147;28;1044;-48
2024/01/19 03:20:54;;;;;;;;;;;;;;;16.48;44.21;99486.44;5113753;28;1217;-47
2024/01/19 03:23:19;;;;;;;;;;;;;;;15.98;44.99;99491.75;5111440;28;1231;-46
2024/01/19 03:25:45;;;;;;;;;;;;;;;15.62;45.95;99489.63;5107173;28;1157;-46
2024/01/19 03:28:11;;;;;;;;;;;;;;;15.82;46.15;99492.28;5108225;28;1124;-49
2024/01/19 03:30:37;;;;;;;;;;;;;;;17.23;42.48;99500.75;5114778;28;1071;-44
2024/01/19 03:33:02;;;;;;;;;;;;;;;16.60;43.64;99500.38;5120022;28;1142;-41
2024/01/19 03:35:28;;;;;;;;;;;;;;;15.97;45.37;99502.47;5120003;28;1909;-45
2024/01/19 03:37:53;;;;;;;;;;;;;;;15.71;45.83;99500.38;5108319;28;1193;-46
2024/01/19 03:40:20;;;;;;;;;;;;;;;15.49;46.51;99515.53;5091781;28;1583;-47
2024/01/19 03:42:46;;;;;;;;;;;;;;;16.65;43.82;99506.94;5110568;28;897;-46
2024/01/19 03:45:11;;;;;;;;;;;;;;;17.07;42.54;99514.63;5113144;28;1098;-45
2024/01/19 03:47:37;;;;;;;;;;;;;;;16.25;44.83;99507.94;5104239;28;967;-47
2024/01/19 03:50:05;;;;;;;;;;;;;;;15.90;45.50;99512.81;5116434;28;1140;-43
2024/01/19 03:52:31;;;;;;;;;;;;;;;15.66;45.92;99511.41;5110045;28;1197;-44
2024/01/19 03:54:56;;;;;;;;;;;;;;;15.43;46.78;99520.41;5105843;28;1981;-43
2024/01/19 03:57:22;;;;;;;;;;;;;;;16.83;43.75;99521.28;5109596;28;1161;-43
2024/01/19 03:59:48;;;;;;;;;;;;;;;17.24;42.45;99527.19;5113265;28;1118;-47
2024/01/19 04:02:13;;;;;;;;;;;;;;;16.23;44.56;99524.00;5088725;28;1325;-46
2024/01/19 04:04:39;;;;;;;;;;;;;;;15.77;45.78;99529.84;5103664;28;1058;-46
2024/01/19 04:07:04;;;;;;;;;;;;;;;15.55;46.22;99530.88;5106342;28;1046;-47
2024/01/19 04:09:30;;;;;;;;;;;;;;;15.65;46.18;99541.50;5108435;28;1237;-48
2024/01/19 04:11:55;;;;;;;;;;;;;;;17.13;42.98;99541.47;5099197;28;1093;-49
2024/01/19 04:14:21;;;;;;;;;;;;;;;16.74;43.41;99544.22;5110425;28;1907;-49
2024/01/19 04:16:47;;;;;;;;;;;;;;;16.01;45.18;99547.22;5119470;28;1397;-46
2024/01/19 04:19:12;;;;;;;;;;;;;;;15.75;46.01;99550.34;5089276;28;906;-47
2024/01/19 04:21:38;;;;;;;;;;;;;;;15.53;46.25;99541.63;5098105;28;1162;-48
2024/01/19 04:24:03;;;;;;;;;;;;;;;15.81;46.06;99548.13;5094137;28;1145;-48
2024/01/19 04:26:29;;;;;;;;;;;;;;;17.20;42.67;99555.03;5097814;28;1344;-50
2024/01/19 04:28:55;;;;;;;;;;;;;;;16.60;43.83;99556.97;5116663;28;1019;-47
2024/01/19 04:31:21;;;;;;;;;;;;;;;15.97;45.13;99552.88;5106056;28;1159;-46
2024/01/19 04:33:46;;;;;;;;;;;;;;;15.65;45.96;99545.00;5091667;28;1094;-47
2024/01/19 04:36:12;;;;;;;;;;;;;;;15.47;46.38;99550.13;5090194;28;1914;-47
2024/01/19 04:38:38;;;;;;;;;;;;;;;15.58;46.37;99551.81;5082085;28;1855;-48
2024/01/19 04:41:03;;;;;;;;;;;;;;;17.06;43.18;99556.31;5095341;28;959;-48
2024/01/19 04:43:30;;;;;;;;;;;;;;;16.85;43.21;99559.19;5092968;28;1133;-49
2024/01/19 04:45:55;;;;;;;;;;;;;;;16.16;45.01;99552.09;5085405;28;1078;-44
2024/01/19 04:48:21;;;;;;;;;;;;;;;15.78;45.64;99559.84;5111773;28;1070;-48
2024/01/19 04:50:46;;;;;;;;;;;;;;;15.50;46.52;99557.81;5098025;28;1058;-48
2024/01/19 04:53:12;;;;;;;;;;;;;;;15.33;46.77;99561.09;5098619;28;1045;-47
2024/01/19 04:55:37;;;;;;;;;;;;;;;16.65;44.27;99560.03;5107837;28;1914;-49
2024/01/19 04:58:03;;;;;;;;;;;;;;;17.20;42.59;99570.97;5092984;28;1176;-40
2024/01/19 05:00:28;;;;;;;;;;;;;;;16.19;45.04;99562.44;5080067;28;1073;-43
2024/01/19 05:02:54;;;;;;;;;;;;;;;15.83;45.97;99572.69;5100719;28;1074;-42
2024/01/19 05:05:19;;;;;;;;;;;;;;;15.61;46.09;99566.63;5108472;28;1063;-43
2024/01/19 05:07:45;;;;;;;;;;;;;;;15.38;46.68;99569.50;5096293;28;903;-41
2024/01/19 05:10:10;;;;;;;;;;;;;;;16.08;45.72;99571.34;5084962;28;1090;-42
2024/01/19 05:12:36;;;;;;;;;;;;;;;17.28;42.74;99572.91;5079447;28;1174;-43
2024/01/19 05:15:02;;;;;;;;;;;;;;;16.77;43.63;99589.09;5113938;28;2008;-44
2024/01/19 05:17:27;;;;;;;;;;;;;;;16.10;45.02;99584.50;5108557;28;1137;-41
2024/01/19 05:19:53;;;;;;;;;;;;;;;16.01;45.57;99588.81;5116519;28;899;-42
2024/01/19 05:22:19;;;;;;;;;;;;;;;17.29;42.20;99585.22;5100162;28;1029;-45
2024/01/19 05:24:45;;;;;;;;;;;;;;;15.50;46.45;99592.25;5090541;28;1113;-46
2024/01/19 05:27:10;;;;;;;;;;;;;;;15.41;46.99;99595.72;5117830;28;1070;-44
2024/01/19 05:29:36;;;;;;;;;;;;;;;15.92;45.61;99601.03;5094480;28;1276;-41
2024/01/19 05:32:02;;;;;;;;;;;;;;;15.14;46.61;99602.41;5090871;28;1003;-50
2024/01/19 05:34:27;;;;;;;;;;;;;;;14.96;47.08;99603.03;5091792;28;1914;-43
2024/01/19 05:36:53;;;;;;;;;;;;;;;15.99;45.59;99614.63;5101887;28;1028;-45
2024/01/19 05:39:18;;;;;;;;;;;;;;;15.16;46.69;99617.19;5105501;28;1124;-47
2024/01/19 05:41:44;;;;;;;;;;;;;;;15.35;47.17;99615.63;5112158;28;1026;-41
2024/01/19 05:44:09;;;;;;;;;;;;;;;15.67;46.16;99622.59;5097363;28;882;-44
2024/01/19 05:46:35;;;;;;;;;;;;;;;15.76;46.63;99626.28;5111579;28;1116;-43
2024/01/19 05:49:00;;;;;;;;;;;;;;;17.53;42.57;99629.06;5117699;28;1134;-46
2024/01/19 05:51:26;;;;;;;;;;;;;;;15.85;45.60;99618.47;5102197;28;1225;-43
2024/01/19 05:53:52;;;;;;;;;;;;;;;15.27;46.19;99624.25;5096798;28;1141;-44
2024/01/19 05:56:17;;;;;;;;;;;;;;;14.99;46.15;99620.44;5082096;28;1898;-43
2024/01/19 05:58:43;;;;;;;;;;;;;;;16.44;45.17;99620.41;5077078;28;1328;-46
2024/01/19 06:01:09;;;;;;;;;;;;;;;16.20;45.04;99630.44;5078613;28;1403;-45
2024/01/19 06:03:35;;;;;;;;;;;;;;;15.36;46.84;99627.94;5077635;28;1305;-46
2024/01/19 06:06:01;;;;;;;;;;;;;;;15.15;46.05;99633.22;5079838;28;1375;-44
2024/01/19 06:08:26;;;;;;;;;;;;;;;16.47;45.30;99638.69;5080404;28;1271;-49
2024/01/19 06:10:52;;;;;;;;;;;;;;;15.34;46.54;99635.16;5076912;28;1245;-48
2024/01/19 06:13:17;;;;;;;;;;;;;;;15.98;46.78;99648.25;5077356;28;1383;-42
2024/01/19 06:15:43;;;;;;;;;;;;;;;16.07;45.84;99648.41;5079326;28;1963;-46
2024/01/19 06:18:08;;;;;;;;;;;;;;;15.33;46.72;99652.00;5076702;28;1299;-46
2024/01/19 06:20:39;;;;;;;;;;;;;;;16.49;45.42;99650.88;5078016;28;1256;-45
2024/01/19 06:23:04;;;;;;;;;;;;;;;15.49;46.80;99659.50;5078100;28;1245;-45
2024/01/19 06:25:30;;;;;;;;;;;;;;;17.31;43.30;99656.84;5061273;28;1325;-44
2024/01/19 06:27:57;;;;;;;;;;;;;;;16.91;43.57;99656.03;5076635;28;1312;-46
2024/01/19 06:30:22;;;;;;;;;;;;;;;15.76;45.82;99666.06;5081947;28;1265;-45
2024/01/19 06:32:48;;;;;;;;;;;;;;;15.45;45.93;99667.84;5086591;28;1237;-42
2024/01/19 06:35:13;;;;;;;;;;;;;;;15.26;45.58;99661.47;5110135;28;1904;-44
2024/01/19 06:37:39;;;;;;;;;;;;;;;15.92;46.06;99672.66;5094734;28;1074;-43
2024/01/19 06:40:05;;;;;;;;;;;;;;;15.92;45.93;99664.69;5080312;28;1048;-46
2024/01/19 06:42:31;;;;;;;;;;;;;;;15.32;46.51;99668.03;5110723;28;1189;-43
2024/01/19 06:44:57;;;;;;;;;;;;;;;15.73;46.88;99674.25;5106707;28;1224;-47
2024/01/19 06:47:22;;;;;;;;;;;;;;;16.37;45.15;99679.34;5115727;28;1105;-45
2024/01/19 06:49:48;;;;;;;;;;;;;;;16.24;46.24;99684.94;5114248;28;1046;-47
2024/01/19 06:52:14;;;;;;;;;;;;;;;17.95;42.06;99691.59;5094039;28;1169;-45
2024/01/19 06:54:39;;;;;;;;;;;;;;;16.45;45.11;99686.63;5093918;28;1898;-42
2024/01/19 06:57:05;;;;;;;;;;;;;;;15.76;46.19;99681.97;5094304;28;1307;-43
2024/01/19 06:59:32;;;;;;;;;;;;;;;15.60;45.73;99674.47;5115881;28;1022;-49
2024/01/19 07:01:57;;;;;;;;;;;;;;;15.37;45.72;99674.63;5115920;28;1077;-43
2024/01/19 07:04:24;;;;;;;;;;;;;;;15.22;45.28;99674.13;5104729;28;1161;-42
2024/01/19 07:06:49;;;;;;;;;;;;;;;16.21;46.04;99689.66;5112755;28;1122;-50
2024/01/19 07:09:17;;;;;;;;;;;;;;;15.83;46.17;99689.38;5115930;28;1073;-49
2024/01/19 07:11:42;;;;;;;;;;;;;;;15.33;46.77;99683.00;5116293;28;1128;-45
2024/01/19 07:14:09;;;;;;;;;;;;;;;15.13;46.22;99681.03;5103239;28;1956;-44
2024/01/19 07:16:40;;;;;;;;;;;;;;;16.72;45.28;99681.63;5114864;28;1085;-45
2024/01/19 07:19:06;;;;;;;;;;;;;;;16.03;45.85;99669.09;5115917;28;1104;-46
2024/01/19 07:21:35;;;;;;;;;;;;;;;15.39;46.96;99678.00;5103208;28;1197;-44
2024/01/19 07:24:01;;;;;;;;;;;;;;;15.22;46.25;99671.47;5116560;28;1116;-44
2024/01/19 07:26:27;;;;;;;;;;;;;;;15.30;46.82;99668.19;5109381;28;1162;-42
2024/01/19 07:28:52;;;;;;;;;;;;;;;16.94;44.46;99677.00;5082704;28;1082;-44
2024/01/19 07:31:18;;;;;;;;;;;;;;;15.66;46.63;99678.41;5101466;28;1252;-44
2024/01/19 07:33:43;;;;;;;;;;;;;;;15.33;46.43;99680.34;5089238;28;1232;-47
2024/01/19 07:36:11;;;;;;;;;;;;;;;15.17;46.39;99676.31;5095325;28;1977;-44
2024/01/19 07:38:36;;;;;;;;;;;;;;;16.18;46.45;99682.81;5109335;28;1170;-41
2024/01/19 07:41:02;;;;;;;;;;;;;;;15.59;47.22;99688.72;5115721;28;951;-43
2024/01/19 07:43:28;;;;;;;;;;;;;;;15.26;46.80;99687.97;5108825;28;1057;-41
2024/01/19 07:45:53;;;;;;;;;;;;;;;15.04;46.29;99695.91;5115968;28;1188;-44
2024/01/19 07:48:19;;;;;;;;;;;;;;;16.53;45.32;99691.25;5102866;28;1053;-48
2024/01/19 07:50:44;;;;;;;;;;;;;;;15.38;47.42;99696.69;5105952;28;1034;-43
2024/01/19 07:53:10;;;;;;;;;;;;;;;15.14;47.09;99703.06;5098301;28;1129;-43
2024/01/19 07:55:35;;;;;;;;;;;;;;;16.33;46.08;99709.78;5116724;28;1913;-43
2024/01/19 07:58:02;;;;;;;;;;;;;;;15.98;46.43;99703.13;5116994;28;1060;-45
2024/01/19 08:00:28;;;;;;;;;;;;;;;15.45;46.92;99703.13;5099340;28;1121;-47
2024/01/19 08:02:53;;;;;;;;;;;;;;;15.14;46.73;99713.69;5114716;28;1061;-44
2024/01/19 08:05:19;;;;;;;;;;;;;;;16.77;45.63;99712.09;5092310;28;1228;-47
2024/01/19 08:07:45;;;;;;;;;;;;;;;15.75;46.60;99704.13;5091868;28;1101;-47
2024/01/19 08:10:11;;;;;;;;;;;;;;;15.38;46.88;99720.53;5091128;28;1162;-45
2024/01/19 08:12:37;;;;;;;;;;;;;;;15.21;46.36;99720.16;5090108;28;1171;-43
2024/01/19 08:15:02;;;;;;;;;;;;;;;14.95;46.63;99725.78;5087598;28;1978;-48
2024/01/19 08:17:28;;;;;;;;;;;;;;;16.13;46.69;99728.31;5094519;28;1007;-48
2024/01/19 08:19:53;;;;;;;;;;;;;;;15.48;47.00;99739.16;5095239;28;1067;-47
2024/01/19 08:22:19;;;;;;;;;;;;;;;15.14;46.94;99735.72;5085966;28;1155;-48
2024/01/19 08:24:44;;;;;;;;;;;;;;;16.30;46.16;99733.13;5099009;28;1142;-41
2024/01/19 08:27:10;;;;;;;;;;;;;;;15.37;47.00;99734.75;5098469;28;1111;-47
2024/01/19 08:29:36;;;;;;;;;;;;;;;15.16;47.20;99733.75;5099088;28;1133;-45
2024/01/19 08:32:01;;;;;;;;;;;;;;;15.76;47.35;99734.13;5103818;28;835;-46
2024/01/19 08:34:27;;;;;;;;;;;;;;;15.95;46.68;99740.53;5092854;28;1976;-44
2024/01/19 08:36:53;;;;;;;;;;;;;;;15.33;47.01;99733.34;5098296;28;1029;-47
2024/01/19 08:39:18;;;;;;;;;;;;;;;15.11;46.80;99735.13;5098911;28;1122;-41
2024/01/19 08:41:44;;;;;;;;;;;;;;;16.30;46.41;99733.94;5118807;28;1010;-47
2024/01/19 08:44:10;;;;;;;;;;;;;;;15.56;47.19;99739.34;5102325;28;1200;-43
2024/01/19 08:46:45;;;;;;;;;;;;;;;15.25;47.41;99728.66;5091097;28;1070;-45
2024/01/19 08:49:10;;;;;;;;;;;;;;;15.29;47.76;99733.59;5093849;28;1110;-46
2024/01/19 08:51:36;;;;;;;;;;;;;;;16.15;46.33;99725.53;5086120;28;1281;-43
2024/01/19 08:54:02;;;;;;;;;;;;;;;15.33;47.22;99725.38;5079006;28;1922;-44
2024/01/19 08:56:27;;;;;;;;;;;;;;;14.99;47.43;99726.38;5082042;28;1454;-44
2024/01/19 08:58:53;;;;;;;;;;;;;;;14.94;46.89;99716.19;5080226;28;1305;-43
2024/01/19 09:01:18;;;;;;;;;;;;;;;16.47;46.22;99724.50;5078060;28;1327;-48
2024/01/19 09:03:44;;;;;;;;;;;;;;;15.50;47.21;99714.19;5086326;28;1316;-44
2024/01/19 09:06:09;;;;;;;;;;;;;;;15.10;47.09;99718.38;5086963;28;1321;-44
2024/01/19 09:08:35;;;;;;;;;;;;;;;15.75;47.45;99725.34;5086382;28;1316;-45
2024/01/19 09:11:00;;;;;;;;;;;;;;;15.67;47.11;99712.75;5086381;28;1022;-49
2024/01/19 09:13:27;;;;;;;;;;;;;;;15.16;47.73;99719.69;5083650;28;1158;-47
2024/01/19 09:15:53;;;;;;;;;;;;;;;15.02;46.90;99720.84;5108584;28;1913;-45
2024/01/19 09:18:19;;;;;;;;;;;;;;;16.22;46.27;99710.75;5095925;28;1107;-51
2024/01/19 09:20:45;;;;;;;;;;;;;;;15.28;47.38;99723.94;5086005;28;1253;-44
2024/01/19 09:23:10;;;;;;;;;;;;;;;15.08;47.19;99717.66;5090563;28;1031;-46
2024/01/19 09:25:36;;;;;;;;;;;;;;;16.82;45.54;99734.72;5083901;28;1289;-43
2024/01/19 09:28:02;;;;;;;;;;;;;;;16.17;46.24;99720.94;5087512;28;1055;-48
2024/01/19 09:30:27;;;;;;;;;;;;;;;15.39;47.39;99716.91;5080957;28;1419;-43
2024/01/19 09:32:53;;;;;;;;;;;;;;;15.26;47.09;99723.25;5083409;28;1327;-46
2024/01/19 09:35:18;;;;;;;;;;;;;;;15.24;47.65;99727.00;5078678;28;1910;-43
2024/01/19 09:37:44;;;;;;;;;;;;;;;16.24;46.62;99714.13;5084050;28;1100;-47
2024/01/19 09:40:10;;;;;;;;;;;;;;;15.50;47.43;99708.88;5086134;28;1240;-42
2024/01/19 09:42:35;;;;;;;;;;;;;;;15.26;47.08;99707.38;5097757;28;1312;-42
2024/01/19 09:45:04;;;;;;;;;;;;;;;15.21;47.65;99712.22;5096976;28;955;-42
2024/01/19 09:47:36;;;;;;;;;;;;;;;16.40;46.14;99708.28;5116259;28;1108;-43
2024/01/19 09:50:05;;;;;;;;;;;;;;;15.46;47.74;99706.63;5112593;28;1037;-41
2024/01/19 09:52:34;;;;;;;;;;;;;;;15.69;47.80;99703.81;5106140;28;1059;-40
2024/01/19 09:54:59;;;;;;;;;;;;;;;16.06;47.16;99710.41;5112397;28;1901;-45
2024/01/19 09:57:25;;;;;;;;;;;;;;;15.42;47.55;99703.41;5095167;28;883;-42
2024/01/19 09:59:50;;;;;;;;;;;;;;;15.29;47.47;99709.75;5092019;28;1043;-40
2024/01/19 10:02:17;;;;;;;;;;;;;;;15.10;46.91;99712.25;5081479;28;1253;-48
2024/01/19 10:04:43;;;;;;;;;;;;;;;16.67;46.31;99723.69;5098615;28;1070;-43
2024/01/19 10:07:08;;;;;;;;;;;;;;;15.86;47.10;99713.81;5096766;28;1136;-40
2024/01/19 10:09:34;;;;;;;;;;;;;;;15.36;47.28;99712.72;5082270;28;1038;-42
2024/01/19 10:11:59;;;;;;;;;;;;;;;16.03;47.43;99715.00;5090696;28;1150;-42
2024/01/19 10:14:26;;;;;;;;;;;;;;;16.11;46.78;99713.50;5102803;28;1902;-41
2024/01/19 10:16:51;;;;;;;;;;;;;;;15.53;47.56;99710.44;5116171;28;1121;-41
2024/01/19 10:19:20;;;;;;;;;;;;;;;15.91;47.66;99711.59;5112313;28;1053;-41
2024/01/19 10:21:45;;;;;;;;;;;;;;;15.79;47.40;99710.00;5112625;28;847;-45
2024/01/19 10:24:14;;;;;;;;;;;;;;;15.27;47.42;99710.84;5097942;28;1471;-44
2024/01/19 10:26:40;;;;;;;;;;;;;;;16.73;45.57;99708.03;5096561;28;1145;-42
2024/01/19 10:29:12;;;;;;;;;;;;;;;15.65;47.47;99703.22;5115549;28;1113;-40
2024/01/19 10:31:38;;;;;;;;;;;;;;;15.32;47.41;99713.09;5103727;28;1157;-44
2024/01/19 10:34:04;;;;;;;;;;;;;;;16.82;45.70;99713.47;5095434;28;1022;-43
2024/01/19 10:36:37;;;;;;;;;;;;;;;15.68;47.30;99713.59;5085631;28;1971;-43
2024/01/19 10:39:29;;;;;;;;;;;;;;;15.41;47.42;99707.03;5077153;28;1187;-42
2024/01/19 10:42:05;;;;;;;;;;;;;;;15.13;46.71;99710.19;5081415;28;1790;-42
2024/01/19 10:44:30;;;;;;;;;;;;;;;15.04;46.39;99708.31;5086260;28;1238;-48
2024/01/19 10:46:56;;;;;;;;;;;;;;;15.41;47.35;99710.50;5085891;28;1191;-46
2024/01/19 10:49:21;;;;;;;;;;;;;;;16.98;45.46;99711.09;5084729;28;1241;-42
2024/01/19 10:51:47;;;;;;;;;;;;;;;15.72;47.23;99722.09;5083539;28;1198;-44
2024/01/19 10:54:17;;;;;;;;;;;;;;;15.34;47.55;99727.06;5083903;28;1897;-45
2024/01/19 10:56:44;;;;;;;;;;;;;;;15.52;47.89;99725.50;5094571;28;1074;-46
2024/01/19 10:59:10;;;;;;;;;;;;;;;16.86;45.50;99728.19;5096854;28;1110;-40
2024/01/19 11:01:36;;;;;;;;;;;;;;;15.64;47.71;99720.97;5096346;28;1053;-49
2024/01/19 11:04:02;;;;;;;;;;;;;;;15.35;47.10;99721.63;5109461;28;1069;-40
2024/01/19 11:06:27;;;;;;;;;;;;;;;15.18;46.98;99723.88;5074343;28;1324;-44
2024/01/19 11:08:53;;;;;;;;;;;;;;;16.97;45.55;99724.53;5082899;28;1386;-44
2024/01/19 11:11:18;;;;;;;;;;;;;;;15.99;46.98;99718.91;5105102;28;1308;-45
2024/01/19 11:13:44;;;;;;;;;;;;;;;15.56;47.14;99723.44;5109825;28;1030;-43
2024/01/19 11:16:13;;;;;;;;;;;;;;;15.38;47.17;99723.19;5089167;28;1913;-48
2024/01/19 11:18:39;;;;;;;;;;;;;;;16.63;46.15;99715.16;5116454;28;1017;-49
2024/01/19 11:21:05;;;;;;;;;;;;;;;15.72;47.39;99711.50;5104548;28;1053;-43
2024/01/19 11:23:31;;;;;;;;;;;;;;;15.33;47.46;99715.59;5095862;28;1245;-47
2024/01/19 11:26:07;;;;;;;;;;;;;;;16.34;46.85;99718.59;5107357;28;1125;-45
2024/01/19 11:28:38;;;;;;;;;;;;;;;15.63;47.54;99716.63;5107860;28;1141;-44
2024/01/19 11:31:14;;;;;;;;;;;;;;;15.30;47.09;99710.56;5081269;28;1231;-42
2024/01/19 11:33:40;;;;;;;;;;;;;;;15.50;48.00;99705.38;5102911;28;1193;-45
2024/01/19 11:36:06;;;;;;;;;;;;;;;15.81;47.37;99702.78;5120105;28;1905;-44
2024/01/19 11:38:42;;;;;;;;;;;;;;;16.48;46.51;99707.59;5074936;28;1115;-45
2024/01/19 11:41:09;;;;;;;;;;;;;;;17.83;43.61;99706.06;5119706;28;1003;-44
2024/01/19 11:43:42;;;;;;;;;;;;;;;16.21;46.70;99709.09;5106106;28;1068;-47
2024/01/19 11:46:08;;;;;;;;;;;;;;;15.67;47.02;99698.66;5119793;28;895;-45
2024/01/19 11:48:41;;;;;;;;;;;;;;;15.49;46.94;99701.91;5106153;28;1093;-42
2024/01/19 11:51:06;;;;;;;;;;;;;;;15.34;46.51;99700.56;5106973;28;1136;-42
2024/01/19 11:53:50;;;;;;;;;;;;;;;15.36;47.16;99703.94;5116378;28;1113;-46
2024/01/19 11:56:22;;;;;;;;;;;;;;;15.94;46.76;99701.69;5085172;28;1914;-45
2024/01/19 11:58:47;;;;;;;;;;;;;;;15.30;47.38;99700.81;5087486;28;1082;-44
2024/01/19 12:01:13;;;;;;;;;;;;;;;15.13;46.96;99696.94;5092259;28;1137;-44
2024/01/19 12:03:39;;;;;;;;;;;;;;;15.10;46.79;99712.25;5090444;28;1189;-45
2024/01/19 12:06:05;;;;;;;;;;;;;;;14.93;46.29;99706.56;5115777;28;1002;-39
2024/01/19 12:08:31;;;;;;;;;;;;;;;16.51;46.29;99702.03;5101567;28;1169;-42
2024/01/19 12:11:03;;;;;;;;;;;;;;;15.93;47.26;99710.63;5084688;28;981;-45
2024/01/19 12:13:30;;;;;;;;;;;;;;;15.42;47.67;99700.75;5096835;28;999;-39
2024/01/19 12:15:56;;;;;;;;;;;;;;;16.50;46.32;99702.97;5099157;28;1896;-42
2024/01/19 12:18:22;;;;;;;;;;;;;;;15.49;47.99;99696.63;5075998;28;1066;-46
2024/01/19 12:20:47;;;;;;;;;;;;;;;15.33;47.27;99697.06;5085793;28;1158;-46
2024/01/19 12:23:13;;;;;;;;;;;;;;;15.12;46.91;99702.38;5081791;28;1308;-43
2024/01/19 12:25:38;;;;;;;;;;;;;;;16.62;46.45;99713.47;5071129;28;1189;-46
2024/01/19 12:28:05;;;;;;;;;;;;;;;15.62;47.37;99712.31;5080545;28;1269;-46
2024/01/19 12:30:32;;;;;;;;;;;;;;;15.88;47.81;99716.34;5088449;28;1110;-43
2024/01/19 12:32:57;;;;;;;;;;;;;;;16.60;48.03;99715.44;5085029;28;1245;-42
2024/01/19 12:35:23;;;;;;;;;;;;;;;16.16;47.67;99714.78;5080999;28;1906;-44
2024/01/19 12:37:48;;;;;;;;;;;;;;;15.70;48.01;99716.13;5097663;28;1387;-43
2024/01/19 12:40:14;;;;;;;;;;;;;;;16.00;48.41;99717.09;5094776;28;1154;-41
2024/01/19 12:42:41;;;;;;;;;;;;;;;16.69;47.19;99717.25;5085363;28;1273;-46
2024/01/19 12:45:07;;;;;;;;;;;;;;;15.79;48.07;99713.50;5082930;28;1246;-39
2024/01/19 12:47:33;;;;;;;;;;;;;;;15.66;47.57;99723.50;5085586;28;1355;-41
2024/01/19 12:49:58;;;;;;;;;;;;;;;16.77;46.98;99725.38;5084558;28;1226;-46
2024/01/19 12:52:24;;;;;;;;;;;;;;;15.84;47.85;99726.38;5108965;28;1161;-44